sensor_id;sensor_type;location;lat;lon;timestamp;temperature;humidity
19088;DHT22;9676;50.916;13.352;2023-08-06T00:01:14;19.90;89.30
19088;DHT22;9676;50.916;13.352;2023-08-06T00:04:04;19.90;89.60
19088;DHT22;9676;50.916;13.352;2023-08-06T00:06:53;19.90;89.70
19088;DHT22;9676;50.916;13.352;2023-08-06T00:09:44;19.90;89.30
19088;DHT22;9676;50.916;13.352;2023-08-06T00:12:33;19.90;90.20
19088;DHT22;9676;50.916;13.352;2023-08-06T00:15:23;19.90;90.00
19088;DHT22;9676;50.916;13.352;2023-08-06T00:18:12;19.80;90.10
19088;DHT22;9676;50.916;13.352;2023-08-06T00:21:01;19.70;90.70
19088;DHT22;9676;50.916;13.352;2023-08-06T00:23:51;19.60;91.00
19088;DHT22;9676;50.916;13.352;2023-08-06T00:26:42;19.60;91.70
19088;DHT22;9676;50.916;13.352;2023-08-06T00:29:31;19.50;92.00
19088;DHT22;9676;50.916;13.352;2023-08-06T00:32:21;19.40;91.80
19088;DHT22;9676;50.916;13.352;2023-08-06T00:35:10;19.40;92.20
19088;DHT22;9676;50.916;13.352;2023-08-06T00:38:02;19.30;92.70
19088;DHT22;9676;50.916;13.352;2023-08-06T00:40:51;19.20;93.00
19088;DHT22;9676;50.916;13.352;2023-08-06T00:43:42;19.20;93.10
19088;DHT22;9676;50.916;13.352;2023-08-06T00:46:32;19.20;93.90
19088;DHT22;9676;50.916;13.352;2023-08-06T00:49:22;19.10;94.00
19088;DHT22;9676;50.916;13.352;2023-08-06T00:52:12;19.10;94.20
19088;DHT22;9676;50.916;13.352;2023-08-06T00:55:02;19.00;94.70
19088;DHT22;9676;50.916;13.352;2023-08-06T00:57:52;19.00;95.20
19088;DHT22;9676;50.916;13.352;2023-08-06T01:00:45;19.00;95.40
19088;DHT22;9676;50.916;13.352;2023-08-06T01:03:35;19.00;96.20
19088;DHT22;9676;50.916;13.352;2023-08-06T01:06:35;19.00;96.10
19088;DHT22;9676;50.916;13.352;2023-08-06T01:09:34;19.00;97.60
19088;DHT22;9676;50.916;13.352;2023-08-06T01:12:34;18.90;97.30
19088;DHT22;9676;50.916;13.352;2023-08-06T01:15:32;18.90;97.50
19088;DHT22;9676;50.916;13.352;2023-08-06T01:18:25;18.90;97.10
19088;DHT22;9676;50.916;13.352;2023-08-06T01:21:16;18.90;97.40
19088;DHT22;9676;50.916;13.352;2023-08-06T01:24:06;18.90;97.50
19088;DHT22;9676;50.916;13.352;2023-08-06T01:27:02;19.00;97.40
19088;DHT22;9676;50.916;13.352;2023-08-06T01:29:59;19.00;98.40
19088;DHT22;9676;50.916;13.352;2023-08-06T01:32:58;19.00;98.60
19088;DHT22;9676;50.916;13.352;2023-08-06T01:35:50;19.00;99.20
19088;DHT22;9676;50.916;13.352;2023-08-06T01:38:41;19.00;98.20
19088;DHT22;9676;50.916;13.352;2023-08-06T01:41:30;19.10;98.70
19088;DHT22;9676;50.916;13.352;2023-08-06T01:44:20;19.10;98.50
19088;DHT22;9676;50.916;13.352;2023-08-06T01:47:09;19.10;98.50
19088;DHT22;9676;50.916;13.352;2023-08-06T01:49:59;19.10;98.50
19088;DHT22;9676;50.916;13.352;2023-08-06T01:52:48;19.20;98.50
19088;DHT22;9676;50.916;13.352;2023-08-06T01:55:40;19.20;98.60
19088;DHT22;9676;50.916;13.352;2023-08-06T01:58:29;19.20;99.10
19088;DHT22;9676;50.916;13.352;2023-08-06T02:01:19;19.30;99.00
19088;DHT22;9676;50.916;13.352;2023-08-06T02:04:09;19.30;99.00
19088;DHT22;9676;50.916;13.352;2023-08-06T02:06:58;19.30;99.10
19088;DHT22;9676;50.916;13.352;2023-08-06T02:09:48;19.30;99.00
19088;DHT22;9676;50.916;13.352;2023-08-06T02:12:38;19.40;99.00
19088;DHT22;9676;50.916;13.352;2023-08-06T02:15:28;19.40;99.40
19088;DHT22;9676;50.916;13.352;2023-08-06T02:18:17;19.40;99.20
19088;DHT22;9676;50.916;13.352;2023-08-06T02:21:07;19.40;99.20
19088;DHT22;9676;50.916;13.352;2023-08-06T02:23:56;19.40;99.00
19088;DHT22;9676;50.916;13.352;2023-08-06T02:26:46;19.40;99.00
19088;DHT22;9676;50.916;13.352;2023-08-06T02:29:41;19.40;98.90
19088;DHT22;9676;50.916;13.352;2023-08-06T02:32:32;19.40;99.70
19088;DHT22;9676;50.916;13.352;2023-08-06T02:35:23;19.40;99.10
19088;DHT22;9676;50.916;13.352;2023-08-06T02:38:13;19.40;99.10
19088;DHT22;9676;50.916;13.352;2023-08-06T02:41:02;19.40;99.00
19088;DHT22;9676;50.916;13.352;2023-08-06T02:43:52;19.40;98.80
19088;DHT22;9676;50.916;13.352;2023-08-06T02:46:45;19.40;98.60
19088;DHT22;9676;50.916;13.352;2023-08-06T02:49:35;19.40;99.20
19088;DHT22;9676;50.916;13.352;2023-08-06T02:52:24;19.30;98.30
19088;DHT22;9676;50.916;13.352;2023-08-06T02:55:14;19.30;98.20
19088;DHT22;9676;50.916;13.352;2023-08-06T02:58:06;19.30;98.50
19088;DHT22;9676;50.916;13.352;2023-08-06T03:01:00;19.20;98.50
19088;DHT22;9676;50.916;13.352;2023-08-06T03:03:56;19.10;98.80
19088;DHT22;9676;50.916;13.352;2023-08-06T03:06:51;19.10;99.30
19088;DHT22;9676;50.916;13.352;2023-08-06T03:09:45;19.00;99.20
19088;DHT22;9676;50.916;13.352;2023-08-06T03:12:34;18.90;99.30
19088;DHT22;9676;50.916;13.352;2023-08-06T03:15:25;18.90;99.60
19088;DHT22;9676;50.916;13.352;2023-08-06T03:18:15;18.80;99.80
19088;DHT22;9676;50.916;13.352;2023-08-06T03:21:06;18.90;99.90
19088;DHT22;9676;50.916;13.352;2023-08-06T03:23:56;18.80;99.90
19088;DHT22;9676;50.916;13.352;2023-08-06T03:26:48;18.90;99.90
19088;DHT22;9676;50.916;13.352;2023-08-06T03:29:38;18.90;99.90
19088;DHT22;9676;50.916;13.352;2023-08-06T03:32:28;18.90;99.90
19088;DHT22;9676;50.916;13.352;2023-08-06T03:35:19;18.90;99.90
19088;DHT22;9676;50.916;13.352;2023-08-06T03:38:10;18.90;99.90
19088;DHT22;9676;50.916;13.352;2023-08-06T03:40:59;18.90;99.90
19088;DHT22;9676;50.916;13.352;2023-08-06T03:43:49;18.80;99.90
19088;DHT22;9676;50.916;13.352;2023-08-06T03:46:44;18.80;99.90
19088;DHT22;9676;50.916;13.352;2023-08-06T03:49:34;18.80;99.90
19088;DHT22;9676;50.916;13.352;2023-08-06T03:52:24;18.80;99.90
19088;DHT22;9676;50.916;13.352;2023-08-06T03:55:15;18.70;99.90
19088;DHT22;9676;50.916;13.352;2023-08-06T03:58:05;18.70;99.90
19088;DHT22;9676;50.916;13.352;2023-08-06T04:01:00;18.70;99.90
19088;DHT22;9676;50.916;13.352;2023-08-06T04:03:57;18.60;99.90
19088;DHT22;9676;50.916;13.352;2023-08-06T04:06:46;18.60;99.90
19088;DHT22;9676;50.916;13.352;2023-08-06T04:09:52;18.60;99.90
19088;DHT22;9676;50.916;13.352;2023-08-06T04:12:43;18.70;99.90
19088;DHT22;9676;50.916;13.352;2023-08-06T04:15:34;18.60;99.90
19088;DHT22;9676;50.916;13.352;2023-08-06T04:18:23;18.60;99.90
19088;DHT22;9676;50.916;13.352;2023-08-06T04:21:13;18.60;99.90
19088;DHT22;9676;50.916;13.352;2023-08-06T04:24:03;18.70;99.90
19088;DHT22;9676;50.916;13.352;2023-08-06T04:26:52;18.60;99.90
19088;DHT22;9676;50.916;13.352;2023-08-06T04:29:43;18.70;99.90
19088;DHT22;9676;50.916;13.352;2023-08-06T04:32:33;18.70;99.90
19088;DHT22;9676;50.916;13.352;2023-08-06T04:35:22;18.70;99.90
19088;DHT22;9676;50.916;13.352;2023-08-06T04:38:12;18.70;99.90
19088;DHT22;9676;50.916;13.352;2023-08-06T04:41:02;18.80;99.90
19088;DHT22;9676;50.916;13.352;2023-08-06T04:43:52;18.80;99.90
19088;DHT22;9676;50.916;13.352;2023-08-06T04:46:44;18.80;99.90
19088;DHT22;9676;50.916;13.352;2023-08-06T04:49:34;18.80;99.90
19088;DHT22;9676;50.916;13.352;2023-08-06T04:52:23;18.90;99.90
19088;DHT22;9676;50.916;13.352;2023-08-06T04:55:15;18.90;99.90
19088;DHT22;9676;50.916;13.352;2023-08-06T04:58:05;18.90;99.90
19088;DHT22;9676;50.916;13.352;2023-08-06T05:00:54;19.00;99.90
19088;DHT22;9676;50.916;13.352;2023-08-06T05:03:46;19.00;99.90
19088;DHT22;9676;50.916;13.352;2023-08-06T05:06:36;19.10;99.90
19088;DHT22;9676;50.916;13.352;2023-08-06T05:09:26;19.10;99.90
19088;DHT22;9676;50.916;13.352;2023-08-06T05:12:16;19.10;99.90
19088;DHT22;9676;50.916;13.352;2023-08-06T05:15:06;19.20;99.90
19088;DHT22;9676;50.916;13.352;2023-08-06T05:17:56;19.20;99.90
19088;DHT22;9676;50.916;13.352;2023-08-06T05:20:47;19.20;99.90
19088;DHT22;9676;50.916;13.352;2023-08-06T05:23:36;19.30;99.90
19088;DHT22;9676;50.916;13.352;2023-08-06T05:26:26;19.30;99.90
19088;DHT22;9676;50.916;13.352;2023-08-06T05:29:16;19.30;99.90
19088;DHT22;9676;50.916;13.352;2023-08-06T05:32:06;19.30;99.90
19088;DHT22;9676;50.916;13.352;2023-08-06T05:34:57;19.40;99.90
19088;DHT22;9676;50.916;13.352;2023-08-06T05:37:47;19.40;99.90
19088;DHT22;9676;50.916;13.352;2023-08-06T05:40:37;19.50;99.90
19088;DHT22;9676;50.916;13.352;2023-08-06T05:43:26;19.50;99.90
19088;DHT22;9676;50.916;13.352;2023-08-06T05:46:16;19.60;99.90
19088;DHT22;9676;50.916;13.352;2023-08-06T05:49:05;19.60;99.90
19088;DHT22;9676;50.916;13.352;2023-08-06T05:51:55;19.70;99.90
19088;DHT22;9676;50.916;13.352;2023-08-06T05:54:46;19.70;99.90
19088;DHT22;9676;50.916;13.352;2023-08-06T05:57:35;19.80;99.90
19088;DHT22;9676;50.916;13.352;2023-08-06T06:00:24;19.80;99.90
19088;DHT22;9676;50.916;13.352;2023-08-06T06:03:14;19.90;99.90
19088;DHT22;9676;50.916;13.352;2023-08-06T06:06:03;19.90;99.90
19088;DHT22;9676;50.916;13.352;2023-08-06T06:08:53;20.00;99.90
19088;DHT22;9676;50.916;13.352;2023-08-06T06:11:43;20.00;99.90
19088;DHT22;9676;50.916;13.352;2023-08-06T06:14:33;20.10;99.90
19088;DHT22;9676;50.916;13.352;2023-08-06T06:17:22;20.10;99.90
19088;DHT22;9676;50.916;13.352;2023-08-06T06:20:12;20.20;99.90
19088;DHT22;9676;50.916;13.352;2023-08-06T06:23:01;20.30;99.90
19088;DHT22;9676;50.916;13.352;2023-08-06T06:25:51;20.30;99.90
19088;DHT22;9676;50.916;13.352;2023-08-06T06:28:41;20.40;99.90
19088;DHT22;9676;50.916;13.352;2023-08-06T06:31:31;20.40;99.90
19088;DHT22;9676;50.916;13.352;2023-08-06T06:34:20;20.50;99.90
19088;DHT22;9676;50.916;13.352;2023-08-06T06:37:10;20.50;99.90
19088;DHT22;9676;50.916;13.352;2023-08-06T06:39:59;20.60;99.90
19088;DHT22;9676;50.916;13.352;2023-08-06T06:42:48;20.50;99.90
19088;DHT22;9676;50.916;13.352;2023-08-06T06:45:39;20.60;99.90
19088;DHT22;9676;50.916;13.352;2023-08-06T06:48:29;20.60;99.70
19088;DHT22;9676;50.916;13.352;2023-08-06T06:51:20;20.60;99.50
19088;DHT22;9676;50.916;13.352;2023-08-06T06:54:09;20.60;99.50
19088;DHT22;9676;50.916;13.352;2023-08-06T06:56:59;20.60;99.40
19088;DHT22;9676;50.916;13.352;2023-08-06T06:59:48;20.60;99.30
19088;DHT22;9676;50.916;13.352;2023-08-06T07:02:39;20.60;99.20
19088;DHT22;9676;50.916;13.352;2023-08-06T07:05:29;20.60;99.00
19088;DHT22;9676;50.916;13.352;2023-08-06T07:08:18;20.60;98.90
19088;DHT22;9676;50.916;13.352;2023-08-06T07:11:08;20.50;98.60
19088;DHT22;9676;50.916;13.352;2023-08-06T07:13:57;20.50;98.50
19088;DHT22;9676;50.916;13.352;2023-08-06T07:16:47;20.50;98.50
19088;DHT22;9676;50.916;13.352;2023-08-06T07:19:38;20.50;98.60
19088;DHT22;9676;50.916;13.352;2023-08-06T07:22:27;20.50;98.90
19088;DHT22;9676;50.916;13.352;2023-08-06T07:25:17;20.50;98.70
19088;DHT22;9676;50.916;13.352;2023-08-06T07:28:07;20.40;98.60
19088;DHT22;9676;50.916;13.352;2023-08-06T07:30:56;20.40;98.60
19088;DHT22;9676;50.916;13.352;2023-08-06T07:33:46;20.40;98.90
19088;DHT22;9676;50.916;13.352;2023-08-06T07:36:37;20.40;99.00
19088;DHT22;9676;50.916;13.352;2023-08-06T07:39:26;20.40;99.10
19088;DHT22;9676;50.916;13.352;2023-08-06T07:42:16;20.40;98.80
19088;DHT22;9676;50.916;13.352;2023-08-06T07:45:09;20.40;98.60
19088;DHT22;9676;50.916;13.352;2023-08-06T07:47:59;20.40;98.80
19088;DHT22;9676;50.916;13.352;2023-08-06T07:50:51;20.30;98.60
19088;DHT22;9676;50.916;13.352;2023-08-06T07:53:42;20.30;98.80
19088;DHT22;9676;50.916;13.352;2023-08-06T07:56:32;20.30;98.60
19088;DHT22;9676;50.916;13.352;2023-08-06T07:59:21;20.20;98.30
19088;DHT22;9676;50.916;13.352;2023-08-06T08:02:11;20.20;98.60
19088;DHT22;9676;50.916;13.352;2023-08-06T08:05:00;20.10;99.00
19088;DHT22;9676;50.916;13.352;2023-08-06T08:07:50;20.00;99.30
19088;DHT22;9676;50.916;13.352;2023-08-06T08:10:41;20.00;99.70
19088;DHT22;9676;50.916;13.352;2023-08-06T08:13:31;20.00;99.90
19088;DHT22;9676;50.916;13.352;2023-08-06T08:16:20;19.90;99.90
19088;DHT22;9676;50.916;13.352;2023-08-06T08:19:10;19.90;99.90
19088;DHT22;9676;50.916;13.352;2023-08-06T08:21:59;19.90;99.90
19088;DHT22;9676;50.916;13.352;2023-08-06T08:24:49;20.00;99.90
19088;DHT22;9676;50.916;13.352;2023-08-06T08:27:40;19.90;99.90
19088;DHT22;9676;50.916;13.352;2023-08-06T08:30:29;20.00;99.90
19088;DHT22;9676;50.916;13.352;2023-08-06T08:33:19;20.10;99.90
19088;DHT22;9676;50.916;13.352;2023-08-06T08:36:08;20.10;99.90
19088;DHT22;9676;50.916;13.352;2023-08-06T08:38:58;20.20;99.90
19088;DHT22;9676;50.916;13.352;2023-08-06T08:41:47;20.30;99.90
19088;DHT22;9676;50.916;13.352;2023-08-06T08:44:38;20.30;99.90
19088;DHT22;9676;50.916;13.352;2023-08-06T08:47:29;20.40;99.90
19088;DHT22;9676;50.916;13.352;2023-08-06T08:50:19;20.50;99.90
19088;DHT22;9676;50.916;13.352;2023-08-06T08:53:08;20.60;99.90
19088;DHT22;9676;50.916;13.352;2023-08-06T08:55:59;20.70;99.90
19088;DHT22;9676;50.916;13.352;2023-08-06T08:58:49;20.80;99.90
19088;DHT22;9676;50.916;13.352;2023-08-06T09:01:42;20.90;99.90
19088;DHT22;9676;50.916;13.352;2023-08-06T09:04:34;21.00;99.90
19088;DHT22;9676;50.916;13.352;2023-08-06T09:07:24;21.00;99.90
19088;DHT22;9676;50.916;13.352;2023-08-06T09:10:16;21.10;99.90
19088;DHT22;9676;50.916;13.352;2023-08-06T09:13:06;21.10;99.90
19088;DHT22;9676;50.916;13.352;2023-08-06T09:15:56;21.10;99.90
19088;DHT22;9676;50.916;13.352;2023-08-06T09:18:47;21.10;99.90
19088;DHT22;9676;50.916;13.352;2023-08-06T09:21:37;21.10;99.90
19088;DHT22;9676;50.916;13.352;2023-08-06T09:24:27;21.00;99.90
19088;DHT22;9676;50.916;13.352;2023-08-06T09:27:17;21.00;99.90
19088;DHT22;9676;50.916;13.352;2023-08-06T09:30:07;21.00;99.90
19088;DHT22;9676;50.916;13.352;2023-08-06T09:32:57;20.90;99.90
19088;DHT22;9676;50.916;13.352;2023-08-06T09:35:48;20.90;99.90
19088;DHT22;9676;50.916;13.352;2023-08-06T09:38:38;20.90;99.90
19088;DHT22;9676;50.916;13.352;2023-08-06T09:41:28;20.90;99.90
19088;DHT22;9676;50.916;13.352;2023-08-06T09:44:20;20.90;99.90
19088;DHT22;9676;50.916;13.352;2023-08-06T09:47:11;21.00;99.90
19088;DHT22;9676;50.916;13.352;2023-08-06T09:50:00;21.00;99.90
19088;DHT22;9676;50.916;13.352;2023-08-06T09:52:52;21.10;99.90
19088;DHT22;9676;50.916;13.352;2023-08-06T09:55:42;21.10;99.90
19088;DHT22;9676;50.916;13.352;2023-08-06T09:58:32;21.20;99.90
19088;DHT22;9676;50.916;13.352;2023-08-06T10:01:22;21.20;99.90
19088;DHT22;9676;50.916;13.352;2023-08-06T10:04:14;21.30;99.90
19088;DHT22;9676;50.916;13.352;2023-08-06T10:07:11;21.40;99.90
19088;DHT22;9676;50.916;13.352;2023-08-06T10:10:03;21.50;99.90
19088;DHT22;9676;50.916;13.352;2023-08-06T10:12:56;21.60;99.90
19088;DHT22;9676;50.916;13.352;2023-08-06T10:15:46;21.70;99.90
19088;DHT22;9676;50.916;13.352;2023-08-06T10:18:38;21.70;99.90
19088;DHT22;9676;50.916;13.352;2023-08-06T10:21:28;21.80;99.90
19088;DHT22;9676;50.916;13.352;2023-08-06T10:24:18;21.80;99.90
19088;DHT22;9676;50.916;13.352;2023-08-06T10:27:09;21.90;99.90
19088;DHT22;9676;50.916;13.352;2023-08-06T10:30:20;22.00;99.90
19088;DHT22;9676;50.916;13.352;2023-08-06T10:33:11;22.10;99.90
19088;DHT22;9676;50.916;13.352;2023-08-06T10:36:01;22.20;99.90
19088;DHT22;9676;50.916;13.352;2023-08-06T10:38:58;22.30;99.90
19088;DHT22;9676;50.916;13.352;2023-08-06T10:41:48;22.40;99.90
19088;DHT22;9676;50.916;13.352;2023-08-06T10:45:10;22.50;99.90
19088;DHT22;9676;50.916;13.352;2023-08-06T10:48:01;22.60;99.90
19088;DHT22;9676;50.916;13.352;2023-08-06T10:50:51;22.70;99.90
19088;DHT22;9676;50.916;13.352;2023-08-06T10:53:43;22.90;99.90
19088;DHT22;9676;50.916;13.352;2023-08-06T10:56:39;23.00;99.90
19088;DHT22;9676;50.916;13.352;2023-08-06T10:59:30;23.10;99.90
19088;DHT22;9676;50.916;13.352;2023-08-06T11:02:20;23.30;99.90
19088;DHT22;9676;50.916;13.352;2023-08-06T11:05:11;23.40;99.90
19088;DHT22;9676;50.916;13.352;2023-08-06T11:08:01;23.60;99.90
19088;DHT22;9676;50.916;13.352;2023-08-06T11:10:50;23.80;99.90
19088;DHT22;9676;50.916;13.352;2023-08-06T11:13:51;23.90;99.90
19088;DHT22;9676;50.916;13.352;2023-08-06T11:16:41;24.10;99.90
19088;DHT22;9676;50.916;13.352;2023-08-06T11:19:32;24.30;99.90
19088;DHT22;9676;50.916;13.352;2023-08-06T11:22:23;24.40;99.90
19088;DHT22;9676;50.916;13.352;2023-08-06T11:25:12;24.50;99.60
19088;DHT22;9676;50.916;13.352;2023-08-06T11:28:02;24.70;99.30
19088;DHT22;9676;50.916;13.352;2023-08-06T11:30:52;24.80;99.00
19088;DHT22;9676;50.916;13.352;2023-08-06T11:33:43;25.00;98.60
19088;DHT22;9676;50.916;13.352;2023-08-06T11:36:36;25.20;97.60
19088;DHT22;9676;50.916;13.352;2023-08-06T11:39:29;25.30;96.60
19088;DHT22;9676;50.916;13.352;2023-08-06T11:42:18;25.50;96.70
19088;DHT22;9676;50.916;13.352;2023-08-06T11:45:08;25.60;96.50
19088;DHT22;9676;50.916;13.352;2023-08-06T11:47:59;25.80;96.10
19088;DHT22;9676;50.916;13.352;2023-08-06T11:50:48;26.00;95.30
19088;DHT22;9676;50.916;13.352;2023-08-06T11:53:39;26.10;94.60
19088;DHT22;9676;50.916;13.352;2023-08-06T11:56:28;26.30;94.00
19088;DHT22;9676;50.916;13.352;2023-08-06T11:59:18;26.50;94.40
19088;DHT22;9676;50.916;13.352;2023-08-06T12:02:10;26.70;93.90
19088;DHT22;9676;50.916;13.352;2023-08-06T12:05:04;26.90;92.80
19088;DHT22;9676;50.916;13.352;2023-08-06T12:08:00;27.10;90.60
19088;DHT22;9676;50.916;13.352;2023-08-06T12:10:52;27.20;90.40
19088;DHT22;9676;50.916;13.352;2023-08-06T12:13:42;27.30;88.40
19088;DHT22;9676;50.916;13.352;2023-08-06T12:16:31;27.30;86.80
19088;DHT22;9676;50.916;13.352;2023-08-06T12:19:21;27.30;84.70
19088;DHT22;9676;50.916;13.352;2023-08-06T12:22:11;27.20;83.20
19088;DHT22;9676;50.916;13.352;2023-08-06T12:25:02;27.20;82.50
19088;DHT22;9676;50.916;13.352;2023-08-06T12:27:56;27.10;82.40
19088;DHT22;9676;50.916;13.352;2023-08-06T12:30:45;27.10;81.50
19088;DHT22;9676;50.916;13.352;2023-08-06T12:33:35;27.00;81.20
19088;DHT22;9676;50.916;13.352;2023-08-06T12:36:24;26.90;80.90
19088;DHT22;9676;50.916;13.352;2023-08-06T12:39:13;26.90;80.60
19088;DHT22;9676;50.916;13.352;2023-08-06T12:42:04;26.80;80.00
19088;DHT22;9676;50.916;13.352;2023-08-06T12:44:58;26.80;79.60
19088;DHT22;9676;50.916;13.352;2023-08-06T12:47:48;26.70;78.50
19088;DHT22;9676;50.916;13.352;2023-08-06T12:50:38;26.70;78.10
19088;DHT22;9676;50.916;13.352;2023-08-06T12:53:27;26.60;77.40
19088;DHT22;9676;50.916;13.352;2023-08-06T12:56:16;26.50;76.50
19088;DHT22;9676;50.916;13.352;2023-08-06T12:59:06;26.30;75.60
19088;DHT22;9676;50.916;13.352;2023-08-06T13:01:57;26.20;75.60
19088;DHT22;9676;50.916;13.352;2023-08-06T13:04:46;26.10;75.50
19088;DHT22;9676;50.916;13.352;2023-08-06T13:07:36;26.00;75.70
19088;DHT22;9676;50.916;13.352;2023-08-06T13:10:25;25.90;76.20
19088;DHT22;9676;50.916;13.352;2023-08-06T13:13:16;25.90;76.60
19088;DHT22;9676;50.916;13.352;2023-08-06T13:16:06;25.90;77.60
19088;DHT22;9676;50.916;13.352;2023-08-06T13:18:57;25.90;78.40
19088;DHT22;9676;50.916;13.352;2023-08-06T13:21:58;26.00;79.40
19088;DHT22;9676;50.916;13.352;2023-08-06T13:24:53;26.10;78.10
19088;DHT22;9676;50.916;13.352;2023-08-06T13:27:42;26.20;79.30
19088;DHT22;9676;50.916;13.352;2023-08-06T13:30:33;26.30;79.00
19088;DHT22;9676;50.916;13.352;2023-08-06T13:33:29;26.50;78.70
19088;DHT22;9676;50.916;13.352;2023-08-06T13:36:20;26.60;78.50
19088;DHT22;9676;50.916;13.352;2023-08-06T13:39:09;26.70;76.30
19088;DHT22;9676;50.916;13.352;2023-08-06T13:41:59;26.70;76.00
19088;DHT22;9676;50.916;13.352;2023-08-06T13:44:49;26.80;75.40
19088;DHT22;9676;50.916;13.352;2023-08-06T13:47:38;26.80;74.50
19088;DHT22;9676;50.916;13.352;2023-08-06T13:50:28;26.90;73.70
19088;DHT22;9676;50.916;13.352;2023-08-06T13:53:18;26.90;73.10
19088;DHT22;9676;50.916;13.352;2023-08-06T13:56:09;26.90;72.30
19088;DHT22;9676;50.916;13.352;2023-08-06T13:58:59;27.00;72.20
19088;DHT22;9676;50.916;13.352;2023-08-06T14:01:48;27.00;72.20
19088;DHT22;9676;50.916;13.352;2023-08-06T14:04:41;27.00;72.10
19088;DHT22;9676;50.916;13.352;2023-08-06T14:07:30;27.10;72.00
19088;DHT22;9676;50.916;13.352;2023-08-06T14:10:21;27.20;72.10
19088;DHT22;9676;50.916;13.352;2023-08-06T14:13:11;27.30;71.50
19088;DHT22;9676;50.916;13.352;2023-08-06T14:16:00;27.30;71.10
19088;DHT22;9676;50.916;13.352;2023-08-06T14:18:49;27.40;71.00
19088;DHT22;9676;50.916;13.352;2023-08-06T14:21:39;27.50;70.60
19088;DHT22;9676;50.916;13.352;2023-08-06T14:24:28;27.60;69.80
19088;DHT22;9676;50.916;13.352;2023-08-06T14:27:20;27.60;68.80
19088;DHT22;9676;50.916;13.352;2023-08-06T14:30:11;27.60;68.50
19088;DHT22;9676;50.916;13.352;2023-08-06T14:33:01;27.70;68.60
19088;DHT22;9676;50.916;13.352;2023-08-06T14:36:11;27.70;68.10
19088;DHT22;9676;50.916;13.352;2023-08-06T14:39:00;27.70;67.50
19088;DHT22;9676;50.916;13.352;2023-08-06T14:42:04;27.60;66.70
19088;DHT22;9676;50.916;13.352;2023-08-06T14:44:58;27.60;65.70
19088;DHT22;9676;50.916;13.352;2023-08-06T14:47:47;27.40;66.20
19088;DHT22;9676;50.916;13.352;2023-08-06T14:50:37;27.40;66.20
19088;DHT22;9676;50.916;13.352;2023-08-06T14:53:27;27.30;66.20
19088;DHT22;9676;50.916;13.352;2023-08-06T14:56:16;27.20;66.20
19088;DHT22;9676;50.916;13.352;2023-08-06T14:59:06;27.20;66.20
19088;DHT22;9676;50.916;13.352;2023-08-06T15:01:57;27.20;66.20
19088;DHT22;9676;50.916;13.352;2023-08-06T15:04:46;27.20;66.00
19088;DHT22;9676;50.916;13.352;2023-08-06T15:07:35;27.20;66.20
19088;DHT22;9676;50.916;13.352;2023-08-06T15:10:25;27.20;66.10
19088;DHT22;9676;50.916;13.352;2023-08-06T15:13:15;27.20;65.70
19088;DHT22;9676;50.916;13.352;2023-08-06T15:16:06;27.20;65.50
19088;DHT22;9676;50.916;13.352;2023-08-06T15:18:57;27.10;65.10
19088;DHT22;9676;50.916;13.352;2023-08-06T15:21:46;27.10;64.80
19088;DHT22;9676;50.916;13.352;2023-08-06T15:24:36;27.00;65.00
19088;DHT22;9676;50.916;13.352;2023-08-06T15:27:29;27.00;65.10
19088;DHT22;9676;50.916;13.352;2023-08-06T15:30:19;26.90;65.00
19088;DHT22;9676;50.916;13.352;2023-08-06T15:33:09;26.90;64.90
19088;DHT22;9676;50.916;13.352;2023-08-06T15:36:00;26.90;64.90
19088;DHT22;9676;50.916;13.352;2023-08-06T15:38:49;26.90;64.90
19088;DHT22;9676;50.916;13.352;2023-08-06T15:41:39;26.90;65.00
19088;DHT22;9676;50.916;13.352;2023-08-06T15:44:28;26.90;64.80
19088;DHT22;9676;50.916;13.352;2023-08-06T15:47:17;26.90;64.80
19088;DHT22;9676;50.916;13.352;2023-08-06T15:50:07;26.90;64.80
19088;DHT22;9676;50.916;13.352;2023-08-06T15:52:58;26.90;64.70
19088;DHT22;9676;50.916;13.352;2023-08-06T15:55:47;26.90;64.60
19088;DHT22;9676;50.916;13.352;2023-08-06T15:58:37;26.80;64.50
19088;DHT22;9676;50.916;13.352;2023-08-06T16:01:26;26.80;64.30
19088;DHT22;9676;50.916;13.352;2023-08-06T16:04:16;26.80;63.90
19088;DHT22;9676;50.916;13.352;2023-08-06T16:07:05;26.70;63.60
19088;DHT22;9676;50.916;13.352;2023-08-06T16:09:56;26.70;63.30
19088;DHT22;9676;50.916;13.352;2023-08-06T16:12:46;26.60;63.10
19088;DHT22;9676;50.916;13.352;2023-08-06T16:15:35;26.60;63.10
19088;DHT22;9676;50.916;13.352;2023-08-06T16:18:24;26.50;63.10
19088;DHT22;9676;50.916;13.352;2023-08-06T16:21:14;26.40;62.90
19088;DHT22;9676;50.916;13.352;2023-08-06T16:24:03;26.40;62.90
19088;DHT22;9676;50.916;13.352;2023-08-06T16:26:54;26.30;62.80
19088;DHT22;9676;50.916;13.352;2023-08-06T16:29:44;26.20;62.70
19088;DHT22;9676;50.916;13.352;2023-08-06T16:32:36;26.20;62.80
19088;DHT22;9676;50.916;13.352;2023-08-06T16:35:27;26.10;62.60
19088;DHT22;9676;50.916;13.352;2023-08-06T16:38:16;26.00;62.40
19088;DHT22;9676;50.916;13.352;2023-08-06T16:41:07;25.90;62.50
19088;DHT22;9676;50.916;13.352;2023-08-06T16:43:58;25.90;62.50
19088;DHT22;9676;50.916;13.352;2023-08-06T16:46:47;25.80;62.40
19088;DHT22;9676;50.916;13.352;2023-08-06T16:49:37;25.70;62.40
19088;DHT22;9676;50.916;13.352;2023-08-06T16:52:26;25.70;62.30
19088;DHT22;9676;50.916;13.352;2023-08-06T16:55:16;25.60;62.00
19088;DHT22;9676;50.916;13.352;2023-08-06T16:58:07;25.60;61.90
19088;DHT22;9676;50.916;13.352;2023-08-06T17:00:57;25.50;61.80
19088;DHT22;9676;50.916;13.352;2023-08-06T17:03:52;25.40;61.70
19088;DHT22;9676;50.916;13.352;2023-08-06T17:06:43;25.30;61.80
19088;DHT22;9676;50.916;13.352;2023-08-06T17:09:32;25.20;61.70
19088;DHT22;9676;50.916;13.352;2023-08-06T17:12:22;25.10;61.70
19088;DHT22;9676;50.916;13.352;2023-08-06T17:15:13;25.00;61.50
19088;DHT22;9676;50.916;13.352;2023-08-06T17:18:04;24.90;61.30
19088;DHT22;9676;50.916;13.352;2023-08-06T17:20:55;24.80;61.30
19088;DHT22;9676;50.916;13.352;2023-08-06T17:23:44;24.70;61.40
19088;DHT22;9676;50.916;13.352;2023-08-06T17:26:33;24.60;61.60
19088;DHT22;9676;50.916;13.352;2023-08-06T17:29:23;24.50;61.70
19088;DHT22;9676;50.916;13.352;2023-08-06T17:32:12;24.40;61.70
19088;DHT22;9676;50.916;13.352;2023-08-06T17:35:03;24.20;61.60
19088;DHT22;9676;50.916;13.352;2023-08-06T17:37:53;24.10;61.70
19088;DHT22;9676;50.916;13.352;2023-08-06T17:40:44;24.00;61.70
19088;DHT22;9676;50.916;13.352;2023-08-06T17:43:34;23.90;61.70
19088;DHT22;9676;50.916;13.352;2023-08-06T17:46:23;23.80;61.80
19088;DHT22;9676;50.916;13.352;2023-08-06T17:49:12;23.70;61.70
19088;DHT22;9676;50.916;13.352;2023-08-06T17:52:04;23.70;61.70
19088;DHT22;9676;50.916;13.352;2023-08-06T17:54:54;23.60;61.70
19088;DHT22;9676;50.916;13.352;2023-08-06T17:57:43;23.40;61.50